createdAt,value
2017-12-14T00:02:27.398Z,2.50
2017-12-14T00:04:58.037Z,2.50
2017-12-14T00:07:28.972Z,2.60
2017-12-14T00:09:59.639Z,2.20
2017-12-14T00:12:30.627Z,2.47
2017-12-14T00:15:01.515Z,2.10
2017-12-14T00:17:32.483Z,2.40
2017-12-14T00:20:02.939Z,2.40
2017-12-14T00:22:33.211Z,2.30
2017-12-14T00:25:02.401Z,2.07
2017-12-14T00:27:34.154Z,1.90
2017-12-14T00:30:04.815Z,2.43
2017-12-14T00:32:35.553Z,1.87
2017-12-14T00:35:07.189Z,2.53
2017-12-14T00:37:38.468Z,2.47
2017-12-14T00:40:08.810Z,2.27
2017-12-14T00:42:39.499Z,1.80
2017-12-14T00:45:11.662Z,2.60
2017-12-14T00:47:43.467Z,2.50
2017-12-14T00:50:14.134Z,2.23
2017-12-14T00:52:44.913Z,2.90
2017-12-14T00:55:15.141Z,1.93
2017-12-14T00:57:46.606Z,2.07
2017-12-14T01:00:16.887Z,2.20
2017-12-14T01:02:47.768Z,2.60
2017-12-14T01:05:19.175Z,2.30
2017-12-14T01:07:49.919Z,2.23
2017-12-14T01:10:20.872Z,2.60
2017-12-14T01:12:51.858Z,2.30
2017-12-14T01:15:23.134Z,2.90
2017-12-14T01:17:54.296Z,2.30
2017-12-14T01:20:24.638Z,2.00
2017-12-14T01:22:56.412Z,1.90
2017-12-14T01:25:27.182Z,1.93
2017-12-14T01:27:57.633Z,1.77
2017-12-14T01:30:28.405Z,2.20
2017-12-14T01:32:59.733Z,1.87
2017-12-14T01:35:29.954Z,2.20
2017-12-14T01:38:02.109Z,2.60
2017-12-14T01:40:32.509Z,2.27
2017-12-14T01:43:04.102Z,2.07
2017-12-14T01:45:34.483Z,2.63
2017-12-14T01:48:05.240Z,2.23
2017-12-14T01:50:36.705Z,2.90
2017-12-14T01:53:07.301Z,2.13
2017-12-14T01:55:39.118Z,2.23
2017-12-14T01:58:11.240Z,2.20
2017-12-14T02:00:42.216Z,2.70
2017-12-14T02:03:13.201Z,2.83
2017-12-14T02:05:43.561Z,2.77
2017-12-14T02:08:14.160Z,2.27
2017-12-14T02:10:44.688Z,2.10
2017-12-14T02:13:15.563Z,2.23
2017-12-14T02:15:46.527Z,2.30
2017-12-14T02:18:17.983Z,2.20
2017-12-14T02:20:48.846Z,2.63
2017-12-14T02:23:20.520Z,2.30
2017-12-14T02:25:51.635Z,2.23
2017-12-14T02:28:23.612Z,2.07
2017-12-14T02:30:54.556Z,2.60
2017-12-14T02:33:25.504Z,3.10
2017-12-14T02:35:56.014Z,2.27
2017-12-14T02:38:27.266Z,2.80
2017-12-14T02:40:58.399Z,2.37
2017-12-14T02:43:30.111Z,2.97
2017-12-14T02:46:01.782Z,3.03
2017-12-14T02:48:32.946Z,2.77
2017-12-14T02:51:03.676Z,2.77
2017-12-14T02:53:34.053Z,3.50
2017-12-14T02:56:04.674Z,3.20
2017-12-14T02:58:35.650Z,4.10
2017-12-14T03:01:06.473Z,3.80
2017-12-14T03:03:37.492Z,3.43
2017-12-14T03:06:08.333Z,3.87
2017-12-14T03:08:39.946Z,4.07
2017-12-14T03:11:11.489Z,3.93
2017-12-14T03:13:43.445Z,3.97
2017-12-14T03:16:14.549Z,3.60
2017-12-14T03:18:45.260Z,4.27
2017-12-14T03:21:16.062Z,4.13
2017-12-14T03:23:47.758Z,4.03
2017-12-14T03:26:18.157Z,3.43
2017-12-14T03:28:49.580Z,4.17
2017-12-14T03:31:20.174Z,4.73
2017-12-14T03:33:51.117Z,4.53
2017-12-14T03:36:21.811Z,4.27
2017-12-14T03:38:52.690Z,4.57
2017-12-14T03:41:23.549Z,2.93
2017-12-14T03:43:54.494Z,4.23
2017-12-14T03:46:25.764Z,4.17
2017-12-14T03:48:56.943Z,3.97
2017-12-14T03:51:27.576Z,3.33
2017-12-14T03:53:59.433Z,3.60
2017-12-14T03:56:30.101Z,3.50
2017-12-14T03:59:00.947Z,3.77
2017-12-14T04:01:32.044Z,3.73
2017-12-14T04:04:02.910Z,3.70
2017-12-14T04:06:34.733Z,4.10
2017-12-14T04:09:06.228Z,3.80
2017-12-14T04:11:37.939Z,4.70
2017-12-14T04:14:10.865Z,3.10
2017-12-14T04:16:42.388Z,4.80
2017-12-14T04:19:13.421Z,3.80
2017-12-14T04:21:44.256Z,3.70
2017-12-14T04:24:15.250Z,4.00
2017-12-14T04:26:45.846Z,4.67
2017-12-14T04:29:17.773Z,3.60
2017-12-14T04:31:49.240Z,3.63
2017-12-14T04:34:20.029Z,3.80
2017-12-14T04:36:50.713Z,3.63
2017-12-14T04:39:21.938Z,3.40
2017-12-14T04:41:52.777Z,3.30
2017-12-14T04:44:25.362Z,3.67
2017-12-14T04:46:56.245Z,3.03
2017-12-14T04:49:27.173Z,3.23
2017-12-14T04:51:59.578Z,3.77
2017-12-14T04:54:32.212Z,3.13
2017-12-14T04:57:03.213Z,3.70
2017-12-14T04:59:34.333Z,3.40
2017-12-14T05:02:05.150Z,2.60
2017-12-14T05:04:36.210Z,3.47
2017-12-14T05:07:07.096Z,3.40
2017-12-14T05:09:38.565Z,4.07
2017-12-14T05:12:09.534Z,3.30
2017-12-14T05:14:41.053Z,2.73
2017-12-14T05:17:12.408Z,3.20
2017-12-14T05:19:43.317Z,2.67
2017-12-14T05:22:14.001Z,2.80
2017-12-14T05:24:44.984Z,2.50
2017-12-14T05:27:15.986Z,1.60
2017-12-14T05:29:47.174Z,1.97
2017-12-14T05:32:17.684Z,1.90
2017-12-14T05:34:49.318Z,1.83
2017-12-14T05:37:19.768Z,1.80
2017-12-14T05:39:51.620Z,1.80
2017-12-14T05:42:22.697Z,1.60
2017-12-14T05:44:53.394Z,1.60
2017-12-14T05:47:24.108Z,1.30
2017-12-14T05:49:54.877Z,2.00
2017-12-14T05:52:25.610Z,1.90
2017-12-14T05:54:56.045Z,1.80
2017-12-14T05:57:27.046Z,1.37
2017-12-14T05:59:57.806Z,1.43
2017-12-14T06:02:28.353Z,1.13
2017-12-14T06:04:58.974Z,1.60
2017-12-14T06:07:29.345Z,1.67
2017-12-14T06:09:59.977Z,1.17
2017-12-14T06:12:30.892Z,1.00
2017-12-14T06:15:01.559Z,1.00
2017-12-14T06:17:32.118Z,1.13
2017-12-14T06:20:02.876Z,1.10
2017-12-14T06:22:33.309Z,1.37
2017-12-14T06:25:04.744Z,1.13
2017-12-14T06:27:35.432Z,1.10
2017-12-14T06:30:06.049Z,1.37
2017-12-14T06:32:36.820Z,1.33
2017-12-14T06:35:07.632Z,1.20
2017-12-14T06:37:38.021Z,1.60
2017-12-14T06:40:08.617Z,1.20
2017-12-14T06:42:39.911Z,1.33
2017-12-14T06:45:10.548Z,1.23
2017-12-14T06:47:41.213Z,1.40
2017-12-14T06:50:12.204Z,1.67
2017-12-14T06:52:42.863Z,1.30
2017-12-14T06:55:13.671Z,1.40
2017-12-14T06:57:44.561Z,1.70
2017-12-14T07:00:16.086Z,1.30
2017-12-14T07:02:52.676Z,1.80
2017-12-14T07:05:23.224Z,1.70
2017-12-14T07:07:54.039Z,1.80
2017-12-14T07:10:24.532Z,2.13
2017-12-14T07:12:55.652Z,2.23
2017-12-14T07:15:27.112Z,2.07
2017-12-14T07:17:58.472Z,1.80
2017-12-14T07:20:30.364Z,2.57
2017-12-14T07:23:01.152Z,2.53
2017-12-14T07:28:07.169Z,2.60
2017-12-14T07:30:38.288Z,2.97
2017-12-14T07:33:11.202Z,3.13
2017-12-14T07:35:42.123Z,2.93
2017-12-14T07:38:15.907Z,3.53
2017-12-14T07:40:47.449Z,3.57
2017-12-14T07:43:20.213Z,3.07
2017-12-14T07:45:59.579Z,2.87
2017-12-14T07:48:31.365Z,3.40
2017-12-14T07:51:03.314Z,3.53
2017-12-14T07:53:33.984Z,3.50
2017-12-14T07:56:04.536Z,3.87
2017-12-14T07:58:35.273Z,3.63
2017-12-14T08:01:06.965Z,3.30
2017-12-14T08:03:37.392Z,3.70
2017-12-14T08:06:08.062Z,3.43
2017-12-14T08:08:38.446Z,2.93
2017-12-14T08:11:08.913Z,3.83
2017-12-14T08:13:39.786Z,3.73
2017-12-14T08:16:10.561Z,4.00
2017-12-14T08:18:42.586Z,3.77
2017-12-14T08:21:13.212Z,4.23
2017-12-14T08:23:43.881Z,3.43
2017-12-14T08:26:14.412Z,3.60
2017-12-14T08:28:45.294Z,4.10
2017-12-14T08:31:16.963Z,4.00
2017-12-14T08:33:47.812Z,3.87
2017-12-14T08:36:18.561Z,5.30
2017-12-14T08:38:49.278Z,4.37
2017-12-14T08:41:20.130Z,4.67
2017-12-14T08:43:50.950Z,5.00
2017-12-14T08:46:21.876Z,4.60
2017-12-14T08:49:02.052Z,4.00
2017-12-14T08:51:37.752Z,6.13
2017-12-14T08:54:16.374Z,5.13
2017-12-14T08:56:53.438Z,5.57
2017-12-14T08:59:28.501Z,5.40
2017-12-14T09:02:07.241Z,6.07
2017-12-14T09:04:42.012Z,5.63
2017-12-14T09:07:17.184Z,5.93
2017-12-14T09:09:51.759Z,5.50
2017-12-14T09:12:24.605Z,4.93
2017-12-14T09:14:55.320Z,7.17
2017-12-14T09:17:25.856Z,6.77
2017-12-14T09:19:58.833Z,5.90
2017-12-14T09:22:29.404Z,6.50
2017-12-14T09:25:00.486Z,6.40
2017-12-14T09:27:31.162Z,6.13
2017-12-14T09:30:01.854Z,5.87
2017-12-14T09:32:32.393Z,4.87
2017-12-14T09:35:03.494Z,5.70
2017-12-14T09:37:34.034Z,6.00
2017-12-14T09:40:04.610Z,4.80
2017-12-14T09:42:35.312Z,4.63
2017-12-14T09:45:06.755Z,4.30
2017-12-14T09:47:38.771Z,4.60
2017-12-14T09:50:11.258Z,4.97
2017-12-14T09:52:42.309Z,3.83
2017-12-14T09:55:12.869Z,4.33
2017-12-14T09:57:43.641Z,4.10
2017-12-14T10:00:15.256Z,4.03
2017-12-14T10:02:47.884Z,3.90
2017-12-14T10:05:19.776Z,3.83
2017-12-14T10:07:50.930Z,3.30
2017-12-14T10:10:21.612Z,3.50
2017-12-14T10:12:52.652Z,3.97
2017-12-14T10:15:23.589Z,3.77
2017-12-14T10:17:54.525Z,4.00
2017-12-14T10:20:26.435Z,3.53
2017-12-14T10:22:57.926Z,4.33
2017-12-14T10:25:32.029Z,3.93
2017-12-14T10:28:03.779Z,4.13
2017-12-14T10:30:35.824Z,4.43
2017-12-14T10:33:07.124Z,3.90
2017-12-14T10:35:37.973Z,3.80
2017-12-14T10:38:09.883Z,4.80
2017-12-14T10:40:41.072Z,4.10
2017-12-14T10:43:12.015Z,5.03
2017-12-14T10:45:42.957Z,3.30
2017-12-14T10:48:13.634Z,4.20
2017-12-14T10:50:46.955Z,4.80
2017-12-14T10:53:19.889Z,4.80
2017-12-14T10:55:50.849Z,4.47
2017-12-14T10:58:21.648Z,4.00
2017-12-14T11:00:57.399Z,4.20
2017-12-14T11:03:28.090Z,3.50
2017-12-14T11:05:59.050Z,4.07
2017-12-14T11:08:30.255Z,3.57
2017-12-14T11:11:02.337Z,3.20
2017-12-14T11:13:34.075Z,3.13
2017-12-14T11:16:05.141Z,2.90
2017-12-14T11:18:37.252Z,3.20
2017-12-14T11:21:08.114Z,2.67
2017-12-14T11:23:39.779Z,3.17
2017-12-14T11:26:10.558Z,2.83
2017-12-14T11:28:41.540Z,3.10
2017-12-14T11:31:13.073Z,3.30
2017-12-14T11:33:44.121Z,3.67
2017-12-14T11:36:15.833Z,2.47
2017-12-14T11:38:46.538Z,2.40
2017-12-14T11:41:17.666Z,2.77
2017-12-14T11:43:49.232Z,2.03
2017-12-14T11:46:20.702Z,2.10
2017-12-14T11:48:52.042Z,2.40
2017-12-14T11:51:23.533Z,1.87
2017-12-14T11:53:54.281Z,1.77
2017-12-14T11:56:25.777Z,2.13
2017-12-14T11:58:56.333Z,1.70
2017-12-14T12:01:27.380Z,2.10
2017-12-14T12:03:58.096Z,1.77
2017-12-14T12:06:29.042Z,1.87
2017-12-14T12:08:59.813Z,2.33
2017-12-14T12:11:31.434Z,2.47
2017-12-14T12:14:03.321Z,2.03
2017-12-14T12:16:34.431Z,2.47
2017-12-14T12:19:05.326Z,2.50
2017-12-14T12:21:37.071Z,2.40
2017-12-14T12:24:07.746Z,2.20
2017-12-14T12:26:40.127Z,2.37
2017-12-14T12:29:10.823Z,2.53
2017-12-14T12:31:41.609Z,2.20
2017-12-14T12:34:12.470Z,2.47
2017-12-14T12:36:43.691Z,2.47
2017-12-14T12:39:14.600Z,2.50
2017-12-14T12:41:45.784Z,2.00
2017-12-14T12:44:17.414Z,2.03
2017-12-14T12:46:50.737Z,2.47
2017-12-14T12:49:21.669Z,1.83
2017-12-14T12:51:52.610Z,2.40
2017-12-14T12:54:23.429Z,2.07
2017-12-14T12:56:53.990Z,2.50
2017-12-14T12:59:24.767Z,2.60
2017-12-14T13:01:56.529Z,2.30
2017-12-14T13:04:27.275Z,2.10
2017-12-14T13:06:58.204Z,2.07
2017-12-14T13:09:28.846Z,2.10
2017-12-14T13:11:59.318Z,2.20
2017-12-14T13:14:31.238Z,1.90
2017-12-14T13:17:01.977Z,1.57
2017-12-14T13:19:32.697Z,2.10
2017-12-14T13:22:03.108Z,1.77
2017-12-14T13:24:34.399Z,1.70
2017-12-14T13:27:04.958Z,1.27
2017-12-14T13:29:35.594Z,1.60
2017-12-14T13:32:06.932Z,1.40
2017-12-14T13:34:41.708Z,1.83
2017-12-14T13:37:12.536Z,1.50
2017-12-14T13:39:43.200Z,2.40
2017-12-14T13:42:14.991Z,1.97
2017-12-14T13:44:45.922Z,2.40
2017-12-14T13:47:18.774Z,2.10
2017-12-14T13:49:50.701Z,2.30
2017-12-14T13:52:21.434Z,2.20
2017-12-14T13:54:54.537Z,2.27
2017-12-14T13:57:26.563Z,2.93
2017-12-14T13:59:59.257Z,2.73
2017-12-14T14:02:31.426Z,2.53
2017-12-14T14:05:01.966Z,2.57
2017-12-14T14:07:32.554Z,3.87
2017-12-14T14:10:03.202Z,2.47
2017-12-14T14:12:34.274Z,2.87
2017-12-14T14:15:05.062Z,2.30
2017-12-14T14:17:36.305Z,2.40
2017-12-14T14:20:06.790Z,2.50
2017-12-14T14:22:37.764Z,2.70
2017-12-14T14:25:08.434Z,2.40
2017-12-14T14:27:39.291Z,3.00
2017-12-14T14:30:10.511Z,2.43
2017-12-14T14:32:41.425Z,2.43
2017-12-14T14:35:12.782Z,2.53
2017-12-14T14:37:44.613Z,2.70
2017-12-14T14:40:15.159Z,3.17
2017-12-14T14:42:45.764Z,2.67
2017-12-14T14:45:16.352Z,2.77
2017-12-14T14:47:47.357Z,2.60
2017-12-14T14:50:17.888Z,2.13
2017-12-14T14:52:49.245Z,2.60
2017-12-14T14:55:20.472Z,2.30
2017-12-14T14:57:52.125Z,2.53
2017-12-14T15:00:23.782Z,2.30
2017-12-14T15:02:54.703Z,2.63
2017-12-14T15:05:25.668Z,1.70
2017-12-14T15:07:56.236Z,2.30
2017-12-14T15:10:27.104Z,2.50
2017-12-14T15:12:57.950Z,2.40
2017-12-14T15:15:29.370Z,3.20
2017-12-14T15:17:59.945Z,3.23
2017-12-14T15:20:30.922Z,2.50
2017-12-14T15:23:02.433Z,2.67
2017-12-14T15:25:34.097Z,2.47
2017-12-14T15:28:04.857Z,2.70
2017-12-14T15:30:36.002Z,2.10
2017-12-14T15:33:06.549Z,2.90
2017-12-14T15:35:37.140Z,2.77
2017-12-14T15:38:08.935Z,2.77
2017-12-14T15:40:39.924Z,3.30
2017-12-14T15:43:10.713Z,3.13
2017-12-14T15:45:41.567Z,3.20
2017-12-14T15:48:12.210Z,3.33
2017-12-14T15:50:42.711Z,3.80
2017-12-14T15:53:13.661Z,3.00
2017-12-14T15:55:44.337Z,3.20
2017-12-14T15:58:14.986Z,3.83
2017-12-14T16:00:45.690Z,4.00
2017-12-14T16:03:19.085Z,3.63
2017-12-14T16:07:18.966Z,4.57
2017-12-14T16:09:49.529Z,3.90
2017-12-14T16:12:21.148Z,3.80
2017-12-14T16:14:51.881Z,4.40
2017-12-14T16:17:23.333Z,4.90
2017-12-14T16:19:57.710Z,4.80
2017-12-14T16:22:28.137Z,4.67
2017-12-14T16:24:58.723Z,5.40
2017-12-14T16:27:29.328Z,5.53
2017-12-14T16:29:59.685Z,5.10
2017-12-14T16:32:30.242Z,5.20
2017-12-14T16:35:01.897Z,5.90
2017-12-14T16:37:34.682Z,6.23
2017-12-14T16:40:05.999Z,5.63
2017-12-14T16:42:36.432Z,5.53
2017-12-14T16:45:07.774Z,5.97
2017-12-14T16:47:38.329Z,5.80
2017-12-14T16:50:09.651Z,6.20
2017-12-14T16:52:40.354Z,6.70
2017-12-14T16:55:10.954Z,6.47
2017-12-14T16:57:41.361Z,6.70
2017-12-14T17:00:12.193Z,6.20
2017-12-14T17:02:42.830Z,6.60
2017-12-14T17:05:14.197Z,5.47
2017-12-14T17:07:44.613Z,6.50
2017-12-14T17:10:16.224Z,6.93
2017-12-14T17:12:46.686Z,5.90
2017-12-14T17:15:17.240Z,5.27
2017-12-14T17:17:48.026Z,4.70
2017-12-14T17:20:18.514Z,5.27
2017-12-14T17:22:48.867Z,5.17
2017-12-14T17:25:19.946Z,5.13
2017-12-14T17:27:51.113Z,5.30
2017-12-14T17:30:21.540Z,4.57
2017-12-14T17:32:53.192Z,5.77
2017-12-14T17:35:23.618Z,4.77
2017-12-14T17:37:56.364Z,4.90
2017-12-14T17:40:27.072Z,4.57
2017-12-14T17:42:57.813Z,4.80
2017-12-14T17:45:28.188Z,4.83
2017-12-14T17:47:58.737Z,4.60
2017-12-14T17:50:29.267Z,4.90
2017-12-14T17:52:59.949Z,5.07
2017-12-14T17:55:31.325Z,5.00
2017-12-14T17:58:01.667Z,5.53
2017-12-14T18:00:32.077Z,4.90
2017-12-14T18:03:02.487Z,5.30
2017-12-14T18:05:32.896Z,7.73
2017-12-14T18:08:04.049Z,5.90
2017-12-14T18:10:35.348Z,5.93
2017-12-14T18:13:05.699Z,6.93
2017-12-14T18:19:08.843Z,6.70
2017-12-14T18:21:39.382Z,6.20
2017-12-14T18:24:09.856Z,6.37
2017-12-14T18:26:41.057Z,7.30
2017-12-14T18:29:12.711Z,6.47
2017-12-14T18:31:43.486Z,5.73
2017-12-14T18:36:49.054Z,7.30
2017-12-14T18:39:19.588Z,7.33
2017-12-14T18:41:50.101Z,6.87
2017-12-14T18:44:20.423Z,6.43
2017-12-14T18:46:50.921Z,8.03
2017-12-14T18:49:22.281Z,7.40
2017-12-14T18:51:52.901Z,7.10
2017-12-14T18:54:23.661Z,8.10
2017-12-14T18:56:54.259Z,8.40
2017-12-14T18:59:24.782Z,7.27
2017-12-14T19:01:55.260Z,8.17
2017-12-14T19:04:26.588Z,8.27
2017-12-14T19:06:57.357Z,7.87
2017-12-14T19:09:27.917Z,9.47
2017-12-14T19:11:58.518Z,8.37
2017-12-14T19:14:29.717Z,8.97
2017-12-14T19:17:00.635Z,9.70
2017-12-14T19:19:31.540Z,8.27
2017-12-14T19:22:02.324Z,8.10
2017-12-14T19:24:33.054Z,9.40
2017-12-14T19:27:03.482Z,8.67
2017-12-14T19:29:34.003Z,8.80
2017-12-14T19:32:04.754Z,8.30
2017-12-14T19:34:35.497Z,8.30
2017-12-14T19:37:06.224Z,8.23
2017-12-14T19:39:36.981Z,9.17
2017-12-14T19:42:08.059Z,9.10
2017-12-14T19:44:38.604Z,9.20
2017-12-14T19:47:09.399Z,8.73
2017-12-14T19:49:41.001Z,7.70
2017-12-14T19:52:11.841Z,8.60
2017-12-14T19:54:42.843Z,8.60
2017-12-14T19:57:14.035Z,7.70
2017-12-14T19:59:44.929Z,8.37
2017-12-14T20:02:15.782Z,8.27
2017-12-14T20:04:46.382Z,8.80
2017-12-14T20:07:17.062Z,8.10
2017-12-14T20:09:48.453Z,7.97
2017-12-14T20:12:22.012Z,8.67
2017-12-14T20:14:53.603Z,8.37
2017-12-14T20:17:24.355Z,8.80
2017-12-14T20:19:55.181Z,8.70
2017-12-14T20:22:26.072Z,7.67
2017-12-14T20:24:56.944Z,10.20
2017-12-14T20:27:27.743Z,9.33
2017-12-14T20:29:58.724Z,8.00
2017-12-14T20:32:29.273Z,9.10
2017-12-14T20:35:00.142Z,9.10
2017-12-14T20:37:31.659Z,8.50
2017-12-14T20:40:02.372Z,9.00
2017-12-14T20:42:33.381Z,9.30
2017-12-14T20:45:05.084Z,9.63
2017-12-14T20:47:36.023Z,9.50
2017-12-14T20:50:06.725Z,8.90
2017-12-14T20:52:37.631Z,8.00
2017-12-14T20:55:08.492Z,10.10
2017-12-14T20:57:40.400Z,8.60
2017-12-14T21:00:42.788Z,9.23
2017-12-14T21:03:13.488Z,8.10
2017-12-14T21:05:44.054Z,8.43
2017-12-14T21:08:15.523Z,8.50
2017-12-14T21:10:46.541Z,8.33
2017-12-14T21:13:17.590Z,8.90
2017-12-14T21:15:49.924Z,9.13
2017-12-14T21:18:20.596Z,8.67
2017-12-14T21:20:51.847Z,9.10
2017-12-14T21:23:22.595Z,9.73
2017-12-14T21:25:53.369Z,8.50
2017-12-14T21:28:24.094Z,9.10
2017-12-14T21:33:34.293Z,8.70
2017-12-14T21:36:05.440Z,7.90
2017-12-14T21:38:37.638Z,9.57
2017-12-14T21:41:09.645Z,8.60
2017-12-14T21:43:41.149Z,8.30
2017-12-14T21:46:11.920Z,9.87
2017-12-14T21:48:43.480Z,10.03
2017-12-14T21:51:15.431Z,8.83
2017-12-14T21:53:47.943Z,8.60
2017-12-14T21:56:27.844Z,11.07
2017-12-14T21:59:08.949Z,9.37
2017-12-14T22:01:47.143Z,9.63
2017-12-14T22:04:21.135Z,8.90
2017-12-14T22:06:56.772Z,10.03
2017-12-14T22:09:32.218Z,8.33
2017-12-14T22:12:15.540Z,8.30
2017-12-14T22:14:57.980Z,9.70
2017-12-14T22:17:32.669Z,8.37
2017-12-14T22:20:10.468Z,9.00
2017-12-14T22:22:46.946Z,8.57
2017-12-14T22:25:21.127Z,9.60
2017-12-14T22:27:58.107Z,7.13
2017-12-14T22:30:31.832Z,8.57
2017-12-14T22:33:08.538Z,8.63
2017-12-14T22:35:42.566Z,8.63
2017-12-14T22:38:13.096Z,8.73
2017-12-14T22:40:44.415Z,7.73
2017-12-14T22:43:15.120Z,7.63
2017-12-14T22:45:47.399Z,8.73
2017-12-14T22:48:18.844Z,7.47
2017-12-14T22:50:49.733Z,7.20
2017-12-14T22:53:21.219Z,7.77
2017-12-14T22:55:52.526Z,7.83
2017-12-14T22:58:24.163Z,8.47
2017-12-14T23:00:56.583Z,7.90
2017-12-14T23:03:27.759Z,8.10
2017-12-14T23:05:58.852Z,8.70
2017-12-14T23:08:32.168Z,8.70
2017-12-14T23:11:03.044Z,8.97
2017-12-14T23:13:35.172Z,9.00
2017-12-14T23:16:06.245Z,8.10
2017-12-14T23:18:37.957Z,8.50
2017-12-14T23:21:08.793Z,8.93
2017-12-14T23:23:41.163Z,8.20
2017-12-14T23:26:12.724Z,9.27
2017-12-14T23:28:44.448Z,9.00
2017-12-14T23:31:40.636Z,9.47
2017-12-14T23:34:12.007Z,8.57
2017-12-14T23:36:43.347Z,7.90
2017-12-14T23:39:14.827Z,8.40
2017-12-14T23:41:46.491Z,8.33
2017-12-14T23:44:18.407Z,9.33
2017-12-14T23:48:18.414Z,8.93
2017-12-14T23:50:50.016Z,8.77
2017-12-14T23:53:23.412Z,9.83
2017-12-14T23:55:55.761Z,8.83
2017-12-14T23:58:27.474Z,9.60
